createdAt,value
2018-01-19T00:00:24.171Z,94368.87
2018-01-19T00:02:54.379Z,94387.62
2018-01-19T00:05:23.392Z,94376.51
2018-01-19T00:07:53.488Z,94394.13
2018-01-19T00:10:22.533Z,94405.45
2018-01-19T00:15:33.355Z,94397.27
2018-01-19T00:18:02.675Z,94402.36
2018-01-19T00:20:31.705Z,94402.69
2018-01-19T00:23:00.758Z,94390.12
2018-01-19T00:25:29.798Z,94380.77
2018-01-19T00:27:58.828Z,94365.16
2018-01-19T00:30:27.852Z,94368.05
2018-01-19T00:32:57.369Z,94375.37
2018-01-19T00:35:26.400Z,94368.11
2018-01-19T00:37:56.500Z,94377.75
2018-01-19T00:40:25.546Z,94378.57
2018-01-19T00:42:55.373Z,94391.34
2018-01-19T00:45:24.412Z,94362.70
2018-01-19T00:50:28.631Z,94385.34
2018-01-19T00:52:57.697Z,94392.53
2018-01-19T00:55:26.738Z,94393.41
2018-01-19T00:57:55.795Z,94388.55
2018-01-19T01:00:25.824Z,94375.95
2018-01-19T01:02:54.880Z,94378.06
2018-01-19T01:05:24.555Z,94373.28
2018-01-19T01:07:53.889Z,94391.00
2018-01-19T01:10:24.115Z,94424.79
2018-01-19T01:12:53.154Z,94409.86
2018-01-19T01:15:23.502Z,94378.83
2018-01-19T01:20:27.751Z,94410.22
2018-01-19T01:22:57.024Z,94396.26
2018-01-19T01:25:26.192Z,94399.52
2018-01-19T01:27:55.233Z,94411.80
2018-01-19T01:30:25.322Z,94406.98
2018-01-19T01:32:54.348Z,94400.64
2018-01-19T01:35:23.378Z,94413.92
2018-01-19T01:37:52.442Z,94418.44
2018-01-19T01:40:21.460Z,94430.05
2018-01-19T01:42:53.569Z,94415.80
2018-01-19T01:45:23.732Z,94401.01
2018-01-19T01:50:27.997Z,94380.20
2018-01-19T01:52:57.036Z,94377.33
2018-01-19T01:55:26.081Z,94411.67
2018-01-19T01:57:55.124Z,94422.64
2018-01-19T02:00:24.181Z,94417.79
2018-01-19T02:05:28.424Z,94382.23
2018-01-19T02:07:57.460Z,94383.80
2018-01-19T02:13:01.686Z,94368.31
2018-01-19T02:15:30.710Z,94359.64
2018-01-19T02:17:59.753Z,94368.50
2018-01-19T02:20:28.774Z,94358.05
2018-01-19T02:22:57.841Z,94359.23
2018-01-19T02:25:26.876Z,94370.47
2018-01-19T02:27:55.929Z,94369.08
2018-01-19T02:30:24.970Z,94362.19
2018-01-19T02:32:54.017Z,94348.22
2018-01-19T02:37:58.295Z,94345.28
2018-01-19T02:40:27.390Z,94352.08
2018-01-19T02:42:56.364Z,94347.31
2018-01-19T02:45:25.406Z,94359.50
2018-01-19T02:47:54.436Z,94361.11
2018-01-19T02:50:23.461Z,94363.54
2018-01-19T02:52:52.518Z,94361.58
2018-01-19T02:57:56.727Z,94375.86
2018-01-19T03:00:25.762Z,94371.53
2018-01-19T03:02:54.809Z,94367.31
2018-01-19T03:05:24.294Z,94362.91
2018-01-19T03:07:58.307Z,94359.55
2018-01-19T03:13:03.583Z,94360.65
2018-01-19T03:15:32.616Z,94370.45
2018-01-19T03:18:01.651Z,94369.33
2018-01-19T03:20:30.691Z,94382.65
2018-01-19T03:22:59.748Z,94370.16
2018-01-19T03:25:28.861Z,94380.71
2018-01-19T03:27:57.859Z,94366.75
2018-01-19T03:30:26.918Z,94381.73
2018-01-19T03:32:55.957Z,94376.66
2018-01-19T03:35:24.983Z,94363.48
2018-01-19T03:37:54.019Z,94372.97
2018-01-19T03:40:23.041Z,94343.70
2018-01-19T03:45:27.321Z,94361.02
2018-01-19T03:47:56.348Z,94365.59
2018-01-19T03:50:25.394Z,94371.50
2018-01-19T03:52:54.421Z,94380.77
2018-01-19T03:57:59.573Z,94395.00
2018-01-19T04:00:35.346Z,94376.74
2018-01-19T04:03:04.354Z,94381.39
2018-01-19T04:05:33.393Z,94397.59
2018-01-19T04:08:02.491Z,94406.69
2018-01-19T04:10:31.531Z,94400.39
2018-01-19T04:13:00.569Z,94412.45
2018-01-19T04:15:29.604Z,94412.72
2018-01-19T04:17:58.641Z,94421.98
2018-01-19T04:20:27.674Z,94420.49
2018-01-19T04:25:31.956Z,94419.65
2018-01-19T04:28:01.000Z,94431.14
2018-01-19T04:30:30.053Z,94432.09
2018-01-19T04:32:59.088Z,94423.81
2018-01-19T04:35:28.125Z,94420.22
2018-01-19T04:37:57.173Z,94426.81
2018-01-19T04:40:26.197Z,94431.16
2018-01-19T04:42:55.228Z,94438.70
2018-01-19T04:45:24.257Z,94443.42
2018-01-19T04:50:28.978Z,94443.97
2018-01-19T04:52:58.010Z,94456.02
2018-01-19T04:55:27.050Z,94460.86
2018-01-19T04:57:56.089Z,94457.74
2018-01-19T05:00:25.114Z,94462.25
2018-01-19T05:02:54.279Z,94475.60
2018-01-19T05:05:23.301Z,94488.55
2018-01-19T05:10:27.517Z,94497.67
2018-01-19T05:12:56.583Z,94494.36
2018-01-19T05:15:25.586Z,94500.27
2018-01-19T05:20:29.843Z,94517.97
2018-01-19T05:22:58.873Z,94512.58
2018-01-19T05:25:27.914Z,94520.39
2018-01-19T05:27:56.928Z,94528.19
2018-01-19T05:30:25.990Z,94536.59
2018-01-19T05:32:55.033Z,94533.06
2018-01-19T05:35:27.773Z,94541.75
2018-01-19T05:40:33.009Z,94562.95
2018-01-19T05:43:02.999Z,94569.05
2018-01-19T05:45:32.025Z,94561.66
2018-01-19T05:48:01.068Z,94578.91
2018-01-19T05:53:05.352Z,94574.27
2018-01-19T05:55:38.406Z,94565.71
2018-01-19T05:58:07.417Z,94562.44
2018-01-19T06:00:36.449Z,94567.35
2018-01-19T06:03:05.495Z,94573.62
2018-01-19T06:05:34.517Z,94574.75
2018-01-19T06:08:03.550Z,94584.21
2018-01-19T06:10:32.626Z,94586.41
2018-01-19T06:13:01.702Z,94588.65
2018-01-19T06:15:30.788Z,94589.58
2018-01-19T06:17:59.858Z,94588.91
2018-01-19T06:20:28.889Z,94590.75
2018-01-19T06:22:57.933Z,94592.52
2018-01-19T06:25:27.905Z,94595.95
2018-01-19T06:27:59.354Z,94602.98
2018-01-19T06:30:28.392Z,94620.87
2018-01-19T06:32:57.505Z,94621.03
2018-01-19T06:35:26.510Z,94622.02
2018-01-19T06:37:55.544Z,94621.02
2018-01-19T06:42:59.817Z,94663.21
2018-01-19T06:45:30.716Z,94670.98
2018-01-19T06:47:59.804Z,94654.39
2018-01-19T06:50:28.889Z,94665.59
2018-01-19T06:52:57.937Z,94680.70
2018-01-19T06:55:27.096Z,94690.36
2018-01-19T06:57:56.200Z,94687.71
2018-01-19T07:00:25.184Z,94693.64
2018-01-19T07:02:54.225Z,94697.44
2018-01-19T07:05:23.259Z,94709.05
2018-01-19T07:07:52.309Z,94710.11
2018-01-19T07:10:21.349Z,94725.26
2018-01-19T07:12:50.391Z,94733.19
2018-01-19T07:15:19.517Z,94739.86
2018-01-19T07:17:48.542Z,94746.56
2018-01-19T07:20:17.587Z,94760.20
2018-01-19T07:22:46.600Z,94765.17
2018-01-19T07:25:15.633Z,94765.07
2018-01-19T07:27:44.670Z,94772.08
2018-01-19T07:30:13.701Z,94779.66
2018-01-19T07:32:42.748Z,94783.04
2018-01-19T07:35:11.809Z,94787.02
2018-01-19T07:37:40.860Z,94800.60
2018-01-19T07:40:09.890Z,94796.80
2018-01-19T07:42:38.953Z,94805.20
2018-01-19T07:45:08.002Z,94811.89
2018-01-19T07:47:37.119Z,94821.25
2018-01-19T07:50:06.147Z,94825.65
2018-01-19T07:52:35.196Z,94824.25
2018-01-19T07:55:04.228Z,94842.44
2018-01-19T07:57:33.430Z,94846.95
2018-01-19T08:00:02.460Z,94858.17
2018-01-19T08:02:31.502Z,94858.17
2018-01-19T08:05:00.696Z,94861.61
2018-01-19T08:07:29.733Z,94870.65
2018-01-19T08:09:58.764Z,94875.89
2018-01-19T08:12:27.793Z,94886.55
2018-01-19T08:14:56.825Z,94889.02
2018-01-19T08:17:25.860Z,94898.38
2018-01-19T08:19:54.895Z,94893.30
2018-01-19T08:22:25.214Z,94896.61
2018-01-19T08:24:54.264Z,94912.77
2018-01-19T08:27:23.313Z,94919.14
2018-01-19T08:29:52.350Z,94922.48
2018-01-19T08:32:21.381Z,94924.03
2018-01-19T08:34:50.412Z,94936.24
2018-01-19T08:37:19.538Z,94934.84
2018-01-19T08:39:48.567Z,94941.48
2018-01-19T08:42:17.604Z,94944.71
2018-01-19T08:44:46.677Z,94950.44
2018-01-19T08:47:15.713Z,94952.31
2018-01-19T08:49:44.945Z,94956.06
2018-01-19T08:52:14.014Z,94959.43
2018-01-19T08:54:43.049Z,94956.58
2018-01-19T08:57:12.121Z,94962.34
2018-01-19T08:59:41.186Z,94975.83
2018-01-19T09:02:10.213Z,94982.40
2018-01-19T09:04:39.335Z,94985.13
2018-01-19T09:07:08.369Z,94992.28
2018-01-19T09:09:37.524Z,95003.23
2018-01-19T09:12:06.942Z,95009.25
2018-01-19T09:14:35.993Z,95010.53
2018-01-19T09:19:44.183Z,95016.91
2018-01-19T09:22:13.503Z,95022.81
2018-01-19T09:24:42.533Z,95024.02
2018-01-19T09:27:11.580Z,95034.39
2018-01-19T09:29:40.633Z,95029.18
2018-01-19T09:32:09.670Z,95043.42
2018-01-19T09:34:38.743Z,95032.32
2018-01-19T09:37:07.787Z,95039.13
2018-01-19T09:39:37.796Z,95047.29
2018-01-19T09:47:17.756Z,95041.25
2018-01-19T09:49:46.801Z,95036.53
2018-01-19T09:52:15.836Z,95042.33
2018-01-19T09:54:44.865Z,95040.75
2018-01-19T09:57:13.923Z,95037.66
2018-01-19T09:59:42.949Z,95039.15
2018-01-19T10:02:12.126Z,95052.08
2018-01-19T10:04:41.153Z,95037.58
2018-01-19T10:07:10.221Z,95035.69
2018-01-19T10:09:39.221Z,95040.77
2018-01-19T10:12:08.293Z,95038.39
2018-01-19T10:14:37.408Z,95039.95
2018-01-19T10:17:06.433Z,95040.43
2018-01-19T10:19:35.561Z,95031.42
2018-01-19T10:24:39.865Z,95030.27
2018-01-19T10:27:08.909Z,95025.60
2018-01-19T10:29:37.963Z,95015.72
2018-01-19T10:32:07.003Z,95016.93
2018-01-19T10:37:11.220Z,95028.41
2018-01-19T10:39:40.266Z,95022.94
2018-01-19T10:42:09.457Z,95028.10
2018-01-19T10:44:39.413Z,95021.89
2018-01-19T10:47:08.443Z,95023.99
2018-01-19T10:49:38.041Z,95024.09
2018-01-19T10:52:07.431Z,95019.92
2018-01-19T10:54:36.483Z,95033.77
2018-01-19T10:57:05.545Z,95028.34
2018-01-19T10:59:34.585Z,95023.48
2018-01-19T11:02:03.632Z,95021.39
2018-01-19T11:04:33.369Z,95018.11
2018-01-19T11:07:02.420Z,95015.13
2018-01-19T11:09:32.432Z,95014.70
2018-01-19T11:12:01.425Z,95024.09
2018-01-19T11:14:31.662Z,95011.92
2018-01-19T11:17:00.700Z,95018.94
2018-01-19T11:19:31.823Z,95016.84
2018-01-19T11:22:00.835Z,95012.95
2018-01-19T11:24:31.150Z,95005.61
2018-01-19T11:27:00.165Z,94991.78
2018-01-19T11:29:31.296Z,95009.21
2018-01-19T11:32:00.346Z,95012.18
2018-01-19T11:34:29.704Z,95008.14
2018-01-19T11:36:58.810Z,94997.30
2018-01-19T11:39:27.861Z,95001.30
2018-01-19T11:41:56.982Z,95000.42
2018-01-19T11:44:26.026Z,95004.92
2018-01-19T11:49:31.275Z,94987.36
2018-01-19T11:52:00.311Z,94986.41
2018-01-19T11:54:30.750Z,94996.27
2018-01-19T11:56:59.791Z,94987.36
2018-01-19T11:59:29.053Z,94990.09
2018-01-19T12:01:58.253Z,95000.64
2018-01-19T12:07:02.633Z,95006.13
2018-01-19T12:09:32.769Z,95006.49
2018-01-19T12:12:01.978Z,95011.05
2018-01-19T12:14:31.976Z,95035.44
2018-01-19T12:17:01.024Z,95025.38
2018-01-19T12:19:31.210Z,95013.58
2018-01-19T12:22:00.233Z,95004.59
2018-01-19T12:24:35.226Z,95014.17
2018-01-19T12:27:04.233Z,95010.07
2018-01-19T12:29:33.390Z,95020.45
2018-01-19T12:32:02.432Z,95012.39
2018-01-19T12:34:32.642Z,95011.34
2018-01-19T12:37:01.962Z,95001.11
2018-01-19T12:39:32.257Z,95021.68
2018-01-19T12:42:01.316Z,94992.95
2018-01-19T12:44:31.292Z,94991.55
2018-01-19T12:49:36.313Z,94988.63
2018-01-19T12:52:05.363Z,94982.62
2018-01-19T12:54:35.349Z,94975.20
2018-01-19T12:59:39.652Z,94978.98
2018-01-19T13:02:08.692Z,94974.97
2018-01-19T13:04:37.745Z,94975.48
2018-01-19T13:07:06.791Z,94977.30
2018-01-19T13:09:36.754Z,94978.23
2018-01-19T13:12:05.780Z,94983.95
2018-01-19T13:14:34.779Z,94980.44
2018-01-19T13:17:04.026Z,94981.19
2018-01-19T13:19:33.453Z,94976.42
2018-01-19T13:22:02.491Z,94985.13
2018-01-19T13:24:32.790Z,94982.44
2018-01-19T13:27:01.854Z,94976.63
2018-01-19T13:29:31.733Z,94976.69
2018-01-19T13:32:00.763Z,94972.52
2018-01-19T13:34:30.881Z,94966.77
2018-01-19T13:36:59.904Z,94967.12
2018-01-19T13:42:04.172Z,94966.58
2018-01-19T13:44:33.204Z,94960.42
2018-01-19T13:47:02.234Z,94953.88
2018-01-19T13:49:32.093Z,94958.56
2018-01-19T13:52:01.349Z,94964.77
2018-01-19T13:54:31.416Z,94963.17
2018-01-19T13:57:00.429Z,94963.55
2018-01-19T13:59:30.841Z,94958.98
2018-01-19T14:01:59.881Z,94960.02
2018-01-19T14:04:29.185Z,94956.42
2018-01-19T14:06:58.291Z,94956.33
2018-01-19T14:09:27.333Z,94958.56
2018-01-19T14:11:56.365Z,94954.27
2018-01-19T14:17:00.697Z,94972.59
2018-01-19T14:19:29.745Z,94969.39
2018-01-19T14:21:58.769Z,94968.47
2018-01-19T14:27:03.018Z,94967.59
2018-01-19T14:29:32.057Z,94966.31
2018-01-19T14:32:01.077Z,94968.45
2018-01-19T14:34:30.125Z,94960.53
2018-01-19T14:36:59.148Z,94953.59
2018-01-19T14:39:28.194Z,94956.70
2018-01-19T14:41:57.245Z,94957.73
2018-01-19T14:44:26.290Z,94956.95
2018-01-19T14:46:55.312Z,94954.05
2018-01-19T14:49:24.364Z,94964.41
2018-01-19T14:51:53.384Z,94950.15
2018-01-19T14:54:22.421Z,94956.42
2018-01-19T14:56:51.555Z,94970.04
2018-01-19T14:59:20.577Z,94969.41
2018-01-19T15:01:49.631Z,94978.69
2018-01-19T15:04:18.666Z,94987.05
2018-01-19T15:06:47.709Z,94989.95
2018-01-19T15:09:16.848Z,94992.34
2018-01-19T15:11:53.647Z,94990.39
2018-01-19T15:14:22.673Z,94991.06
2018-01-19T15:19:26.959Z,94998.05
2018-01-19T15:21:55.960Z,94993.19
2018-01-19T15:24:24.997Z,94991.05
2018-01-19T15:26:54.051Z,94993.06
2018-01-19T15:29:23.101Z,94993.02
2018-01-19T15:31:52.149Z,94995.96
2018-01-19T15:34:21.181Z,94992.23
2018-01-19T15:36:50.208Z,95001.95
2018-01-19T15:39:19.266Z,94997.41
2018-01-19T15:41:48.309Z,94997.69
2018-01-19T15:44:17.345Z,94996.40
2018-01-19T15:46:46.368Z,94992.75
2018-01-19T15:49:15.400Z,94992.38
2018-01-19T15:51:44.447Z,94995.42
2018-01-19T15:54:13.477Z,94994.77
2018-01-19T15:56:42.545Z,94995.98
2018-01-19T15:59:11.610Z,94995.67
2018-01-19T16:01:40.646Z,94997.01
2018-01-19T16:04:09.696Z,94993.42
2018-01-19T16:06:38.836Z,95002.09
2018-01-19T16:09:07.862Z,94995.66
2018-01-19T16:11:36.890Z,95001.43
2018-01-19T16:14:10.460Z,95002.66
2018-01-19T16:16:39.481Z,94996.86
2018-01-19T16:19:08.549Z,94995.95
2018-01-19T16:24:12.793Z,94990.06
2018-01-19T16:26:41.852Z,94990.75
2018-01-19T16:29:10.895Z,94988.66
2018-01-19T16:31:39.902Z,94989.83
2018-01-19T16:34:08.942Z,94987.48
2018-01-19T16:36:37.990Z,94985.18
2018-01-19T16:39:07.038Z,94987.91
2018-01-19T16:41:37.098Z,94992.45
2018-01-19T16:44:06.198Z,94992.63
2018-01-19T16:46:35.288Z,94991.23
2018-01-19T16:51:39.554Z,94985.89
2018-01-19T16:54:08.606Z,94987.48
2018-01-19T16:56:37.620Z,94986.45
2018-01-19T16:59:06.677Z,94989.72
2018-01-19T17:01:35.728Z,94988.00
2018-01-19T17:04:04.758Z,94990.07
2018-01-19T17:06:33.816Z,94982.78
2018-01-19T17:09:02.853Z,94982.64
2018-01-19T17:11:31.901Z,94979.63
2018-01-19T17:14:00.944Z,94979.20
2018-01-19T17:16:29.997Z,94983.30
2018-01-19T17:18:59.054Z,94987.69
2018-01-19T17:21:28.110Z,94993.34
2018-01-19T17:23:57.150Z,94987.77
2018-01-19T17:26:26.217Z,94989.40
2018-01-19T17:28:55.244Z,94991.45
2018-01-19T17:31:24.296Z,94992.34
2018-01-19T17:36:28.611Z,94994.70
2018-01-19T17:38:57.627Z,94996.55
2018-01-19T17:41:26.669Z,95001.24
2018-01-19T17:44:16.993Z,95004.58
2018-01-19T17:49:21.699Z,95003.89
2018-01-19T17:51:50.737Z,95003.11
2018-01-19T17:54:19.786Z,95004.22
2018-01-19T17:56:49.759Z,95005.95
2018-01-19T17:59:18.940Z,94998.49
2018-01-19T18:01:49.877Z,94995.58
2018-01-19T18:06:58.113Z,94989.44
2018-01-19T18:12:06.338Z,94988.91
2018-01-19T18:14:35.372Z,94986.84
2018-01-19T18:17:04.404Z,94990.84
2018-01-19T18:19:33.449Z,94985.20
2018-01-19T18:22:02.477Z,94982.53
2018-01-19T18:24:31.515Z,94979.80
2018-01-19T18:27:00.596Z,94984.52
2018-01-19T18:29:29.626Z,94977.95
2018-01-19T18:31:58.661Z,94971.63
2018-01-19T18:34:27.692Z,94970.31
2018-01-19T18:36:56.722Z,94971.63
2018-01-19T18:39:31.732Z,94972.57
2018-01-19T18:42:00.744Z,94973.30
2018-01-19T18:44:29.876Z,94970.56
2018-01-19T18:46:58.965Z,94966.84
2018-01-19T18:49:27.973Z,94970.31
2018-01-19T18:51:56.999Z,94972.28
2018-01-19T18:54:26.048Z,94970.30
2018-01-19T18:56:55.104Z,94974.44
2018-01-19T18:59:24.173Z,94971.17
2018-01-19T19:01:53.181Z,94969.27
2018-01-19T19:04:22.228Z,94967.73
2018-01-19T19:06:51.365Z,94970.13
2018-01-19T19:09:20.410Z,94966.52
2018-01-19T19:11:49.425Z,94971.14
2018-01-19T19:14:18.496Z,94969.44
2018-01-19T19:16:47.544Z,94972.53
2018-01-19T19:19:17.510Z,94963.53
2018-01-19T19:21:53.227Z,94963.81
2018-01-19T19:24:22.266Z,94955.06
2018-01-19T19:26:51.322Z,94949.45
2018-01-19T19:29:20.357Z,94946.55
2018-01-19T19:31:49.413Z,94950.95
2018-01-19T19:34:18.451Z,94953.26
2018-01-19T19:39:22.697Z,94954.86
2018-01-19T19:41:51.762Z,94956.60
2018-01-19T19:44:20.850Z,94951.52
2018-01-19T19:46:49.960Z,94959.97
2018-01-19T19:49:19.002Z,94954.84
2018-01-19T19:51:48.064Z,94955.83
2018-01-19T19:54:17.151Z,94957.89
2018-01-19T19:56:46.184Z,94953.64
2018-01-19T19:59:15.215Z,94951.87
2018-01-19T20:01:44.249Z,94955.78
2018-01-19T20:04:13.292Z,94947.95
2018-01-19T20:06:42.342Z,94945.34
2018-01-19T20:09:11.380Z,94946.63
2018-01-19T20:11:40.424Z,94942.98
2018-01-19T20:14:09.467Z,94948.28
2018-01-19T20:16:38.521Z,94954.06
2018-01-19T20:19:07.572Z,94949.19
2018-01-19T20:21:36.655Z,94951.25
2018-01-19T20:24:05.689Z,94953.28
2018-01-19T20:26:34.710Z,94947.69
2018-01-19T20:29:03.781Z,94946.59
2018-01-19T20:31:32.837Z,94951.67
2018-01-19T20:34:01.932Z,94950.20
2018-01-19T20:36:31.076Z,94944.37
2018-01-19T20:39:00.102Z,94940.30
2018-01-19T20:41:29.152Z,94945.39
2018-01-19T20:43:58.205Z,94946.61
2018-01-19T20:46:27.446Z,94952.28
2018-01-19T20:48:56.523Z,94957.64
2018-01-19T20:51:25.573Z,94953.42
2018-01-19T20:53:54.630Z,94945.23
2018-01-19T20:56:23.653Z,94945.76
2018-01-19T20:58:52.720Z,94944.36
2018-01-19T21:01:21.750Z,94946.88
2018-01-19T21:03:50.797Z,94937.21
2018-01-19T21:06:22.121Z,94937.95
2018-01-19T21:08:51.157Z,94947.69
2018-01-19T21:11:21.209Z,94938.33
2018-01-19T21:13:50.312Z,94937.41
2018-01-19T21:16:19.355Z,94941.27
2018-01-19T21:18:48.438Z,94941.31
2018-01-19T21:21:17.476Z,94945.28
2018-01-19T21:23:46.513Z,94946.89
2018-01-19T21:26:15.547Z,94949.41
2018-01-19T21:28:44.609Z,94952.39
2018-01-19T21:31:13.646Z,94951.17
2018-01-19T21:33:42.685Z,94956.98
2018-01-19T21:36:11.736Z,94961.27
2018-01-19T21:38:40.906Z,94957.53
2018-01-19T21:41:09.912Z,94960.45
2018-01-19T21:43:38.957Z,94967.74
2018-01-19T21:46:07.994Z,94969.72
2018-01-19T21:48:37.025Z,94964.69
2018-01-19T21:51:06.070Z,94960.72
2018-01-19T21:53:35.093Z,94966.83
2018-01-19T21:56:09.103Z,94972.00
2018-01-19T21:58:44.426Z,94976.53
2018-01-19T22:01:13.879Z,94976.34
2018-01-19T22:03:42.903Z,94975.73
2018-01-19T22:06:12.010Z,94977.45
2018-01-19T22:08:47.394Z,94981.80
2018-01-19T22:11:16.421Z,94986.66
2018-01-19T22:13:45.445Z,94985.70
2018-01-19T22:16:14.484Z,94986.77
2018-01-19T22:18:43.527Z,94989.62
2018-01-19T22:21:12.802Z,94994.19
2018-01-19T22:26:18.167Z,94998.36
2018-01-19T22:28:47.230Z,94994.46
2018-01-19T22:31:16.254Z,94990.19
2018-01-19T22:33:45.289Z,94995.99
2018-01-19T22:36:14.342Z,94997.70
2018-01-19T22:38:43.380Z,94998.45
2018-01-19T22:41:12.420Z,94998.47
2018-01-19T22:43:41.460Z,95001.42
2018-01-19T22:46:10.497Z,95008.13
2018-01-19T22:48:39.543Z,95010.70
2018-01-19T22:51:08.570Z,95008.72
2018-01-19T22:53:37.609Z,95015.73
2018-01-19T22:56:06.641Z,95021.95
2018-01-19T22:58:35.673Z,95018.33
2018-01-19T23:01:04.755Z,95028.11
2018-01-19T23:03:33.800Z,95022.95
2018-01-19T23:06:02.832Z,95037.88
2018-01-19T23:08:31.868Z,95048.32
2018-01-19T23:11:00.889Z,95041.22
2018-01-19T23:13:29.930Z,95047.41
2018-01-19T23:15:58.967Z,95044.75
2018-01-19T23:18:28.022Z,95042.16
2018-01-19T23:20:57.053Z,95048.77
2018-01-19T23:23:26.908Z,95051.60
2018-01-19T23:27:11.553Z,95059.45
2018-01-19T23:29:40.602Z,95061.41
2018-01-19T23:32:09.710Z,95059.81
2018-01-19T23:34:38.756Z,95062.17
2018-01-19T23:37:07.799Z,95062.27
2018-01-19T23:39:36.833Z,95065.56
2018-01-19T23:42:05.905Z,95064.19
2018-01-19T23:44:34.949Z,95073.58
2018-01-19T23:47:04.017Z,95078.47
2018-01-19T23:49:33.051Z,95083.39
2018-01-19T23:52:02.078Z,95084.00
2018-01-19T23:54:31.150Z,95076.61
2018-01-19T23:57:00.191Z,95079.94
2018-01-19T23:59:29.256Z,95086.52
